createdAt,value
2022-12-08T00:00:06.765Z,100688.44
2022-12-08T00:01:13.304Z,100688.44
2022-12-08T00:02:21.853Z,100688.44
2022-12-08T00:03:24.914Z,100684.97
2022-12-08T00:04:26.539Z,100683.25
2022-12-08T00:05:48.125Z,100692.84
2022-12-08T00:07:08.520Z,100681.38
2022-12-08T00:11:25.791Z,100677.91
2022-12-08T00:12:27.636Z,100673.66
2022-12-08T00:13:30.336Z,100677.25
2022-12-08T00:14:33.463Z,100676.41
2022-12-08T00:15:35.931Z,100672.94
2022-12-08T00:16:37.506Z,100674.72
2022-12-08T00:17:40.058Z,100673.84
2022-12-08T00:18:41.588Z,100669.44
2022-12-08T00:19:44.853Z,100666.81
2022-12-08T00:20:54.897Z,100668.50
2022-12-08T00:21:58.161Z,100668.50
2022-12-08T00:22:59.759Z,100666.72
2022-12-08T00:24:02.299Z,100667.53
2022-12-08T00:25:06.317Z,100651.88
2022-12-08T00:26:09.371Z,100657.03
2022-12-08T00:27:12.628Z,100659.66
2022-12-08T00:28:15.260Z,100653.47
2022-12-08T00:29:17.927Z,100650.75
2022-12-08T00:30:20.651Z,100652.41
2022-12-08T00:31:22.232Z,100653.25
2022-12-08T00:32:24.855Z,100652.34
2022-12-08T00:33:28.176Z,100654.97
2022-12-08T00:34:31.657Z,100644.44
2022-12-08T00:35:34.855Z,100653.25
2022-12-08T00:36:40.610Z,100649.88
2022-12-08T00:37:42.145Z,100642.94
2022-12-08T00:38:44.991Z,100645.56
2022-12-08T00:39:46.811Z,100642.94
2022-12-08T00:40:49.456Z,100637.66
2022-12-08T00:42:09.488Z,100632.41
2022-12-08T00:43:20.558Z,100637.66
2022-12-08T00:44:22.093Z,100635.97
2022-12-08T00:45:24.605Z,100640.41
2022-12-08T00:46:26.205Z,100637.84
2022-12-08T00:47:29.077Z,100640.50
2022-12-08T00:48:30.698Z,100631.75
2022-12-08T00:49:33.296Z,100632.69
2022-12-08T00:50:34.909Z,100631.84
2022-12-08T00:51:37.713Z,100640.69
2022-12-08T00:52:40.626Z,100631.09
2022-12-08T00:53:43.161Z,100631.09
2022-12-08T00:54:44.759Z,100624.97
2022-12-08T00:55:47.303Z,100626.78
2022-12-08T00:56:49.193Z,100622.44
2022-12-08T00:57:51.702Z,100624.16
2022-12-08T00:58:53.692Z,100626.00
2022-12-08T00:59:57.128Z,100625.09
2022-12-08T01:00:58.707Z,100629.41
2022-12-08T01:02:01.298Z,100628.56
2022-12-08T01:03:02.936Z,100629.41
2022-12-08T01:04:06.032Z,100624.16
2022-12-08T01:05:08.282Z,100619.69
2022-12-08T01:06:11.245Z,100618.88
2022-12-08T01:07:12.845Z,100622.25
2022-12-08T01:08:16.857Z,100621.31
2022-12-08T01:09:19.113Z,100626.47
2022-12-08T01:10:21.634Z,100621.13
2022-12-08T01:11:23.248Z,100617.53
2022-12-08T01:12:30.142Z,100613.03
2022-12-08T01:13:32.871Z,100620.00
2022-12-08T01:14:35.378Z,100618.97
2022-12-08T01:20:14.908Z,100616.88
2022-12-08T01:21:16.934Z,100619.63
2022-12-08T01:22:19.469Z,100620.47
2022-12-08T01:23:22.332Z,100624.75
2022-12-08T01:24:24.899Z,100622.97
2022-12-08T01:25:27.713Z,100624.69
2022-12-08T01:26:30.181Z,100621.94
2022-12-08T01:27:31.899Z,100622.78
2022-12-08T01:28:35.133Z,100623.63
2022-12-08T01:29:36.895Z,100620.91
2022-12-08T01:30:40.050Z,100624.38
2022-12-08T01:31:41.823Z,100620.81
2022-12-08T01:32:44.360Z,100622.50
2022-12-08T01:33:46.248Z,100628.63
2022-12-08T01:34:48.891Z,100625.97
2022-12-08T01:35:50.458Z,100625.97
2022-12-08T01:36:52.923Z,100622.38
2022-12-08T01:37:55.518Z,100621.44
2022-12-08T01:38:59.966Z,100620.53
2022-12-08T01:40:03.160Z,100618.63
2022-12-08T01:41:05.049Z,100621.19
2022-12-08T01:42:15.143Z,100613.28
2022-12-08T01:43:18.595Z,100618.44
2022-12-08T01:44:59.967Z,100616.63
2022-12-08T01:46:01.869Z,100608.75
2022-12-08T01:47:04.666Z,100617.50
2022-12-08T01:48:11.413Z,100612.22
2022-12-08T01:49:18.107Z,100621.81
2022-12-08T01:50:20.557Z,100613.94
2022-12-08T01:51:23.671Z,100612.97
2022-12-08T01:52:29.912Z,100621.63
2022-12-08T01:53:32.934Z,100612.75
2022-12-08T01:54:42.571Z,100610.88
2022-12-08T01:55:50.944Z,100609.19
2022-12-08T01:56:58.673Z,100616.16
2022-12-08T01:58:07.010Z,100604.78
2022-12-08T01:59:10.174Z,100606.56
2022-12-08T02:00:15.438Z,100607.28
2022-12-08T02:01:17.467Z,100603.72
2022-12-08T02:02:20.161Z,100601.09
2022-12-08T02:03:29.074Z,100601.00
2022-12-08T02:04:30.600Z,100604.47
2022-12-08T02:05:36.812Z,100603.53
2022-12-08T02:06:43.076Z,100598.25
2022-12-08T02:07:47.145Z,100599.94
2022-12-08T02:08:50.003Z,100603.53
2022-12-08T02:09:55.638Z,100596.56
2022-12-08T02:10:57.774Z,100591.28
2022-12-08T02:12:01.284Z,100597.53
2022-12-08T02:13:04.890Z,100599.31
2022-12-08T02:14:09.597Z,100600.03
2022-12-08T02:15:11.736Z,100593.09
2022-12-08T02:16:25.262Z,100590.47
2022-12-08T02:17:43.037Z,100582.56
2022-12-08T02:19:22.494Z,100592.13
2022-12-08T02:20:28.591Z,100593.00
2022-12-08T02:21:39.585Z,100586.88
2022-12-08T02:22:51.915Z,100594.69
2022-12-08T02:24:07.318Z,100587.72
2022-12-08T02:25:20.161Z,100587.72
2022-12-08T02:26:49.376Z,100587.72
2022-12-08T02:28:05.373Z,100582.44
2022-12-08T02:29:32.669Z,100577.31
2022-12-08T02:30:44.034Z,100566.84
2022-12-08T02:31:59.026Z,100568.53
2022-12-08T02:33:29.351Z,100572.13
2022-12-08T02:34:41.551Z,100569.47
2022-12-08T02:35:54.004Z,100559.16
2022-12-08T02:37:07.049Z,100560.00
2022-12-08T02:38:14.368Z,100561.78
2022-12-08T02:39:28.841Z,100564.50
2022-12-08T02:40:34.878Z,100564.69
2022-12-08T02:41:42.774Z,100563.88
2022-12-08T02:42:48.429Z,100560.28
2022-12-08T02:43:58.520Z,100554.28
2022-12-08T02:45:03.470Z,100548.09
2022-12-08T02:46:10.656Z,100556.91
2022-12-08T02:47:17.112Z,100553.44
2022-12-08T02:48:18.638Z,100561.34
2022-12-08T02:49:21.149Z,100555.22
2022-12-08T02:50:24.068Z,100553.53
2022-12-08T02:51:26.721Z,100560.50
2022-12-08T02:52:43.361Z,100546.38
2022-12-08T02:53:47.092Z,100545.44
2022-12-08T02:54:53.420Z,100542.81
2022-12-08T02:56:11.037Z,100538.38
2022-12-08T02:57:25.817Z,100538.38
2022-12-08T02:58:47.671Z,100534.91
2022-12-08T03:00:03.970Z,100536.69
2022-12-08T03:01:38.675Z,100533.31
2022-12-08T03:02:50.112Z,100537.72
2022-12-08T03:04:04.220Z,100537.84
2022-12-08T03:05:13.693Z,100538.69
2022-12-08T03:06:29.554Z,100533.41
2022-12-08T03:07:35.427Z,100525.53
2022-12-08T03:08:46.870Z,100525.53
2022-12-08T03:09:55.308Z,100516.66
2022-12-08T03:11:03.578Z,100527.09
2022-12-08T03:12:14.063Z,100524.47
2022-12-08T03:13:25.145Z,100528.81
2022-12-08T03:14:31.302Z,100522.69
2022-12-08T03:15:35.024Z,100513.94
2022-12-08T03:16:40.701Z,100515.63
2022-12-08T03:17:46.181Z,100513.09
2022-12-08T03:18:53.713Z,100514.78
2022-12-08T03:19:58.166Z,100520.06
2022-12-08T03:21:01.500Z,100514.78
2022-12-08T03:22:06.870Z,100510.25
2022-12-08T03:23:12.393Z,100509.31
2022-12-08T03:24:16.368Z,100515.31
2022-12-08T03:25:23.029Z,100509.09
2022-12-08T03:26:30.229Z,100515.03
2022-12-08T03:27:33.312Z,100515.03
2022-12-08T03:28:35.033Z,100512.47
2022-12-08T03:29:37.597Z,100507.19
2022-12-08T03:30:43.101Z,100508.16
2022-12-08T03:31:52.247Z,100510.03
2022-12-08T03:33:01.655Z,100502.06
2022-12-08T03:34:06.039Z,100504.69
2022-12-08T03:35:10.891Z,100505.53
2022-12-08T03:36:15.237Z,100500.28
2022-12-08T03:37:18.308Z,100495.09
2022-12-08T03:38:20.838Z,100498.56
2022-12-08T03:39:22.402Z,100499.41
2022-12-08T03:40:26.330Z,100504.56
2022-12-08T03:41:28.206Z,100490.66
2022-12-08T03:42:30.679Z,100490.59
2022-12-08T03:43:32.424Z,100497.50
2022-12-08T03:44:34.899Z,100492.25
2022-12-08T03:45:36.607Z,100493.09
2022-12-08T03:46:39.153Z,100501.00
2022-12-08T03:47:40.667Z,100490.47
2022-12-08T03:48:43.242Z,100493.09
2022-12-08T03:49:44.776Z,100495.00
2022-12-08T03:50:47.243Z,100483.63
2022-12-08T03:51:48.813Z,100486.25
2022-12-08T03:52:52.644Z,100487.19
2022-12-08T03:53:54.289Z,100483.63
2022-12-08T03:54:56.823Z,100474.78
2022-12-08T03:55:58.404Z,100485.09
2022-12-08T03:57:00.861Z,100472.88
2022-12-08T03:58:02.487Z,100474.56
2022-12-08T03:59:05.526Z,100475.38
2022-12-08T04:00:09.937Z,100475.38
2022-12-08T04:01:14.298Z,100478.03
2022-12-08T04:02:16.892Z,100474.56
2022-12-08T04:03:18.524Z,100470.13
2022-12-08T04:04:21.079Z,100471.09
2022-12-08T04:05:22.590Z,100468.47
2022-12-08T04:06:25.409Z,100462.22
2022-12-08T04:07:27.070Z,100470.97
2022-12-08T04:08:30.995Z,100470.97
2022-12-08T04:09:34.178Z,100466.75
2022-12-08T04:10:36.386Z,100463.41
2022-12-08T04:11:38.896Z,100461.69
2022-12-08T04:12:40.433Z,100456.44
2022-12-08T04:13:43.524Z,100459.06
2022-12-08T04:14:45.038Z,100460.00
2022-12-08T04:15:48.241Z,100449.47
2022-12-08T04:16:49.832Z,100457.38
2022-12-08T04:17:52.304Z,100456.53
2022-12-08T04:18:54.250Z,100452.09
2022-12-08T04:19:57.288Z,100452.88
2022-12-08T04:20:58.822Z,100450.22
2022-12-08T04:22:01.309Z,100452.00
2022-12-08T04:23:02.887Z,100451.16
2022-12-08T04:24:07.685Z,100448.44
2022-12-08T04:25:09.603Z,100450.09
2022-12-08T04:26:12.532Z,100450.22
2022-12-08T04:27:15.865Z,100444.84
2022-12-08T04:28:18.557Z,100445.69
2022-12-08T04:29:20.073Z,100441.28
2022-12-08T04:30:22.643Z,100442.13
2022-12-08T04:31:24.471Z,100443.06
2022-12-08T04:32:26.972Z,100436.84
2022-12-08T04:33:28.817Z,100446.53
2022-12-08T04:34:31.308Z,100438.63
2022-12-08T04:35:32.909Z,100438.72
2022-12-08T04:36:35.445Z,100439.69
2022-12-08T04:37:36.958Z,100437.78
2022-12-08T04:38:39.863Z,100433.47
2022-12-08T04:39:42.768Z,100434.22
2022-12-08T04:40:45.374Z,100431.66
2022-12-08T04:41:46.933Z,100435.16
2022-12-08T04:42:49.456Z,100433.47
2022-12-08T04:43:51.975Z,100433.47
2022-12-08T04:44:53.488Z,100434.31
2022-12-08T04:45:56.053Z,100435.16
2022-12-08T04:46:57.607Z,100435.16
2022-12-08T04:48:00.482Z,100431.78
2022-12-08T04:49:03.031Z,100433.47
2022-12-08T04:50:06.331Z,100434.44
2022-12-08T04:51:16.023Z,100426.53
2022-12-08T04:52:17.529Z,100427.38
2022-12-08T04:53:21.199Z,100431.78
2022-12-08T04:54:22.783Z,100421.47
2022-12-08T04:55:26.671Z,100424.09
2022-12-08T04:56:28.200Z,100423.97
2022-12-08T04:57:30.774Z,100429.16
2022-12-08T04:58:32.316Z,100428.19
2022-12-08T04:59:37.832Z,100428.19
2022-12-08T05:00:39.766Z,100427.47
2022-12-08T05:01:42.704Z,100428.41
2022-12-08T05:02:44.844Z,100428.41
2022-12-08T05:03:47.419Z,100426.72
2022-12-08T05:04:48.981Z,100424.09
2022-12-08T05:05:51.464Z,100421.47
2022-12-08T05:06:53.012Z,100419.78
2022-12-08T05:07:55.482Z,100412.81
2022-12-08T05:08:57.095Z,100414.50
2022-12-08T05:09:59.831Z,100419.78
2022-12-08T05:11:04.061Z,100420.81
2022-12-08T05:12:06.766Z,100426.09
2022-12-08T05:13:08.284Z,100421.03
2022-12-08T05:14:12.882Z,100420.06
2022-12-08T05:15:14.599Z,100423.56
2022-12-08T05:16:17.552Z,100426.09
2022-12-08T05:17:19.227Z,100423.34
2022-12-08T05:18:21.781Z,100424.19
2022-12-08T05:19:26.740Z,100420.72
2022-12-08T05:20:29.315Z,100422.41
2022-12-08T05:21:30.927Z,100427.66
2022-12-08T05:22:33.463Z,100425.03
2022-12-08T05:23:35.632Z,100419.78
2022-12-08T05:24:42.537Z,100425.03
2022-12-08T05:25:48.250Z,100418.84
2022-12-08T05:26:51.110Z,100420.63
2022-12-08T05:28:06.231Z,100418.84
2022-12-08T05:29:16.301Z,100426.72
2022-12-08T05:30:18.914Z,100422.41
2022-12-08T05:31:20.468Z,100417.22
2022-12-08T05:32:23.091Z,100418.06
2022-12-08T05:33:24.715Z,100417.34
2022-12-08T05:34:27.468Z,100425.25
2022-12-08T05:35:29.095Z,100414.72
2022-12-08T05:36:31.628Z,100423.56
2022-12-08T05:37:33.357Z,100414.72
2022-12-08T05:38:35.905Z,100416.50
2022-12-08T05:39:37.673Z,100413.78
2022-12-08T05:40:41.095Z,100416.41
2022-12-08T05:41:42.812Z,100412.81
2022-12-08T05:42:46.946Z,100409.25
2022-12-08T05:43:48.909Z,100420.63
2022-12-08T05:44:51.409Z,100408.38
2022-12-08T05:45:53.077Z,100412.81
2022-12-08T05:46:55.604Z,100417.22
2022-12-08T05:47:57.194Z,100411.03
2022-12-08T05:49:01.000Z,100403.25
2022-12-08T05:50:03.060Z,100402.28
2022-12-08T05:51:06.389Z,100403.97
2022-12-08T05:52:12.521Z,100401.34
2022-12-08T05:53:15.087Z,100400.41
2022-12-08T05:54:16.749Z,100396.91
2022-12-08T05:55:19.237Z,100398.69
2022-12-08T05:56:21.659Z,100403.13
2022-12-08T05:57:24.113Z,100400.50
2022-12-08T05:58:26.991Z,100401.44
2022-12-08T05:59:29.506Z,100393.66
2022-12-08T06:00:34.622Z,100402.47
2022-12-08T06:01:37.420Z,100397.44
2022-12-08T06:02:39.203Z,100398.47
2022-12-08T06:03:41.902Z,100398.56
2022-12-08T06:04:44.449Z,100394.28
2022-12-08T06:05:47.236Z,100396.06
2022-12-08T06:06:49.695Z,100400.47
2022-12-08T06:07:51.326Z,100403.09
2022-12-08T06:08:54.000Z,100398.78
2022-12-08T06:09:55.591Z,100400.56
2022-12-08T06:10:58.163Z,100398.78
2022-12-08T06:11:59.688Z,100396.16
2022-12-08T06:13:02.224Z,100397.13
2022-12-08T06:14:05.181Z,100391.00
2022-12-08T06:15:09.081Z,100395.28
2022-12-08T06:16:11.627Z,100392.78
2022-12-08T06:17:13.272Z,100393.72
2022-12-08T06:18:15.968Z,100392.66
2022-12-08T06:19:17.691Z,100389.22
2022-12-08T06:20:20.192Z,100397.13
2022-12-08T06:21:21.864Z,100395.41
2022-12-08T06:22:24.382Z,100391.94
2022-12-08T06:23:25.955Z,100390.25
2022-12-08T06:24:28.633Z,100392.16
2022-12-08T06:25:30.464Z,100386.88
2022-12-08T06:26:32.965Z,100385.19
2022-12-08T06:27:35.462Z,100389.59
2022-12-08T06:28:37.366Z,100382.66
2022-12-08T06:29:41.290Z,100391.50
2022-12-08T06:30:42.851Z,100387.94
2022-12-08T06:31:45.465Z,100392.22
2022-12-08T06:32:47.058Z,100388.78
2022-12-08T06:33:49.744Z,100389.72
2022-12-08T06:34:51.332Z,100384.47
2022-12-08T06:35:54.044Z,100388.97
2022-12-08T06:36:56.523Z,100387.09
2022-12-08T06:38:00.026Z,100394.13
2022-12-08T06:39:02.953Z,100395.91
2022-12-08T06:40:05.703Z,100391.50
2022-12-08T06:41:15.323Z,100385.38
2022-12-08T06:42:35.482Z,100393.41
2022-12-08T06:43:37.986Z,100390.78
2022-12-08T06:44:40.925Z,100386.44
2022-12-08T06:45:43.501Z,100383.91
2022-12-08T06:46:45.281Z,100393.63
2022-12-08T06:47:47.850Z,100390.22
2022-12-08T06:48:50.658Z,100394.56
2022-12-08T06:49:52.244Z,100395.47
2022-12-08T06:50:54.836Z,100393.78
2022-12-08T06:51:56.513Z,100392.97
2022-12-08T06:53:05.153Z,100389.38
2022-12-08T06:54:08.396Z,100397.38
2022-12-08T06:55:10.445Z,100390.34
2022-12-08T06:56:14.071Z,100389.50
2022-12-08T06:57:15.663Z,100392.97
2022-12-08T06:58:18.366Z,100392.13
2022-12-08T06:59:19.937Z,100400.03
2022-12-08T07:00:23.983Z,100398.31
2022-12-08T07:01:26.552Z,100396.53
2022-12-08T07:02:28.227Z,100397.38
2022-12-08T07:03:30.776Z,100406.94
2022-12-08T07:04:33.560Z,100402.66
2022-12-08T07:05:35.228Z,100406.13
2022-12-08T07:06:37.932Z,100406.22
2022-12-08T07:07:41.348Z,100403.72
2022-12-08T07:08:43.987Z,100408.13
2022-12-08T07:09:45.514Z,100408.13
2022-12-08T07:10:47.999Z,100408.13
2022-12-08T07:11:49.715Z,100407.28
2022-12-08T07:12:52.272Z,100413.38
2022-12-08T07:13:56.798Z,100418.66
2022-12-08T07:14:58.868Z,100408.13
2022-12-08T07:16:06.251Z,100422.22
2022-12-08T07:17:08.139Z,100422.22
2022-12-08T07:18:11.131Z,100411.78
2022-12-08T07:19:13.643Z,100418.84
2022-12-08T07:20:15.601Z,100413.59
2022-12-08T07:21:18.778Z,100413.78
2022-12-08T07:22:21.223Z,100413.78
2022-12-08T07:23:23.943Z,100424.31
2022-12-08T07:24:26.473Z,100420.00
2022-12-08T07:25:28.043Z,100408.72
2022-12-08T07:26:30.590Z,100422.84
2022-12-08T07:27:32.219Z,100421.13
2022-12-08T07:28:36.238Z,100417.66
2022-12-08T07:29:37.821Z,100421.97
2022-12-08T07:30:40.502Z,100420.28
2022-12-08T07:31:43.514Z,100417.78
2022-12-08T07:32:46.406Z,100419.56
2022-12-08T07:33:48.057Z,100418.69
2022-12-08T07:34:50.513Z,100423.97
2022-12-08T07:35:54.980Z,100419.56
2022-12-08T07:36:57.505Z,100411.75
2022-12-08T07:38:00.214Z,100410.16
2022-12-08T07:39:01.798Z,100410.28
2022-12-08T07:40:05.344Z,100412.91
2022-12-08T07:41:12.616Z,100416.47
2022-12-08T07:42:15.124Z,100407.81
2022-12-08T07:43:16.785Z,100407.81
2022-12-08T07:44:19.353Z,100409.72
2022-12-08T07:45:20.856Z,100409.84
2022-12-08T07:46:25.634Z,100406.34
2022-12-08T07:47:28.543Z,100415.09
2022-12-08T07:48:31.012Z,100411.63
2022-12-08T07:49:33.496Z,100409.06
2022-12-08T07:50:36.386Z,100405.59
2022-12-08T07:51:38.907Z,100411.69
2022-12-08T07:52:40.471Z,100415.38
2022-12-08T07:53:48.403Z,100411.81
2022-12-08T07:54:53.327Z,100417.09
2022-12-08T07:55:55.834Z,100408.22
2022-12-08T07:56:58.551Z,100412.75
2022-12-08T07:58:01.088Z,100407.56
2022-12-08T07:59:04.075Z,100411.16
2022-12-08T08:00:07.360Z,100410.31
2022-12-08T08:01:21.473Z,100410.31
2022-12-08T08:02:26.004Z,100409.47
2022-12-08T08:03:30.432Z,100412.94
2022-12-08T08:04:32.036Z,100412.94
2022-12-08T08:05:34.580Z,100414.66
2022-12-08T08:06:37.878Z,100411.91
2022-12-08T08:07:41.989Z,100416.13
2022-12-08T08:08:44.649Z,100410.13
2022-12-08T08:09:46.154Z,100416.13
2022-12-08T08:10:48.673Z,100418.75
2022-12-08T08:15:03.607Z,100411.81
2022-12-08T08:16:07.172Z,100420.66
2022-12-08T08:17:08.866Z,100421.56
2022-12-08T08:18:11.501Z,100419.16
2022-12-08T08:19:14.430Z,100418.31
2022-12-08T08:20:17.009Z,100415.78
2022-12-08T08:22:43.497Z,100416.72
2022-12-08T08:23:46.158Z,100411.56
2022-12-08T08:24:47.811Z,100411.56
2022-12-08T08:25:50.352Z,100412.38
2022-12-08T08:26:55.150Z,100411.38
2022-12-08T08:27:56.770Z,100412.19
2022-12-08T08:28:59.505Z,100409.56
2022-12-08T08:30:05.103Z,100414.00
2022-12-08T08:31:08.247Z,100410.41
2022-12-08T08:32:09.975Z,100416.63
2022-12-08T08:33:12.474Z,100421.91
2022-12-08T08:34:15.339Z,100421.03
2022-12-08T08:35:18.431Z,100420.19
2022-12-08T08:36:21.931Z,100421.03
2022-12-08T08:37:24.593Z,100416.63
2022-12-08T08:38:26.349Z,100415.78
2022-12-08T08:39:30.586Z,100415.78
2022-12-08T08:40:32.312Z,100415.78
2022-12-08T08:41:35.317Z,100424.41
2022-12-08T08:42:37.816Z,100415.47
2022-12-08T08:43:39.480Z,100412.03
2022-12-08T08:44:42.116Z,100420.66
2022-12-08T08:45:43.925Z,100410.97
2022-12-08T08:46:46.437Z,100409.91
2022-12-08T08:47:48.104Z,100410.78
2022-12-08T08:48:50.661Z,100408.03
2022-12-08T08:49:54.515Z,100412.25
2022-12-08T08:50:57.347Z,100414.78
2022-12-08T08:51:59.851Z,100413.72
2022-12-08T08:53:02.667Z,100406.69
2022-12-08T08:54:05.319Z,100407.53
2022-12-08T08:55:07.466Z,100413.66
2022-12-08T08:56:11.212Z,100411.94
2022-12-08T08:57:25.734Z,100412.78
2022-12-08T08:58:28.714Z,100404.06
2022-12-08T08:59:31.334Z,100409.31
2022-12-08T09:00:32.856Z,100407.66
2022-12-08T09:01:35.421Z,100410.28
2022-12-08T09:02:38.310Z,100411.09
2022-12-08T09:03:39.860Z,100406.69
2022-12-08T09:04:42.473Z,100409.31
2022-12-08T09:05:45.434Z,100411.94
2022-12-08T09:06:48.297Z,100415.53
2022-12-08T09:07:49.922Z,100412.91
2022-12-08T09:08:52.799Z,100414.78
2022-12-08T09:10:01.444Z,100404.25
2022-12-08T09:11:04.564Z,100407.81
2022-12-08T09:12:06.556Z,100409.53
2022-12-08T09:13:09.876Z,100413.94
2022-12-08T09:14:12.868Z,100410.38
2022-12-08T09:15:15.877Z,100418.19
2022-12-08T09:16:19.220Z,100411.00
2022-12-08T09:17:20.817Z,100410.81
2022-12-08T09:18:23.373Z,100422.19
2022-12-08T09:19:25.919Z,100415.88
2022-12-08T09:20:27.534Z,100421.88
2022-12-08T09:21:37.244Z,100418.28
2022-12-08T09:22:38.831Z,100416.44
2022-12-08T09:23:41.525Z,100413.69
2022-12-08T09:24:43.041Z,100418.94
2022-12-08T09:25:45.992Z,100410.13
2022-12-08T09:26:47.576Z,100409.25
2022-12-08T09:27:50.092Z,100415.25
2022-12-08T09:28:52.838Z,100413.47
2022-12-08T09:29:55.295Z,100416.94
2022-12-08T09:30:56.921Z,100417.88
2022-12-08T09:31:59.556Z,100422.22
2022-12-08T09:33:02.218Z,100418.66
2022-12-08T09:34:05.283Z,100414.25
2022-12-08T09:35:08.285Z,100413.19
2022-12-08T09:36:11.896Z,100413.91
2022-12-08T09:37:15.749Z,100410.34
2022-12-08T09:38:17.347Z,100417.31
2022-12-08T09:39:19.853Z,100406.78
2022-12-08T09:40:24.783Z,100405.81
2022-12-08T09:41:37.868Z,100412.97
2022-12-08T09:42:51.481Z,100407.72
2022-12-08T09:44:04.093Z,100409.50
2022-12-08T09:45:11.451Z,100406.00
2022-12-08T09:46:17.383Z,100410.34
2022-12-08T09:47:23.573Z,100408.56
2022-12-08T09:48:32.764Z,100414.69
2022-12-08T09:49:39.573Z,100405.94
2022-12-08T09:50:47.459Z,100405.81
2022-12-08T09:51:50.377Z,100401.50
2022-12-08T09:53:01.413Z,100403.28
2022-12-08T09:54:07.738Z,100402.44
2022-12-08T09:55:21.499Z,100406.88
2022-12-08T09:56:25.577Z,100408.66
2022-12-08T09:57:30.275Z,100402.44
2022-12-08T09:58:45.069Z,100407.72
2022-12-08T09:59:53.585Z,100404.22
2022-12-08T10:00:56.970Z,100404.22
2022-12-08T10:02:01.108Z,100399.06
2022-12-08T10:03:04.114Z,100399.06
2022-12-08T10:04:16.020Z,100397.38
2022-12-08T10:05:17.873Z,100401.69
2022-12-08T10:06:25.860Z,100399.91
2022-12-08T10:07:39.177Z,100400.53
2022-12-08T10:08:59.392Z,100405.81
2022-12-08T10:10:08.161Z,100400.34
2022-12-08T10:11:17.486Z,100395.84
2022-12-08T10:12:27.342Z,100396.78
2022-12-08T10:13:37.836Z,100399.41
2022-12-08T10:14:43.887Z,100396.78
2022-12-08T10:15:52.627Z,100399.41
2022-12-08T10:17:02.798Z,100396.78
2022-12-08T10:18:13.603Z,100389.72
2022-12-08T10:19:19.708Z,100390.56
2022-12-08T10:20:25.785Z,100388.66
2022-12-08T10:21:31.595Z,100396.34
2022-12-08T10:22:41.257Z,100388.47
2022-12-08T10:23:51.187Z,100394.56
2022-12-08T10:24:59.662Z,100391.94
2022-12-08T10:26:04.909Z,100393.72
2022-12-08T10:27:12.776Z,100390.25
2022-12-08T10:28:15.574Z,100391.94
2022-12-08T10:29:18.875Z,100391.09
2022-12-08T10:30:22.197Z,100388.56
2022-12-08T10:31:26.277Z,100388.56
2022-12-08T10:32:36.319Z,100391.28
2022-12-08T10:33:40.063Z,100383.53
2022-12-08T10:35:02.053Z,100385.19
2022-12-08T10:36:04.934Z,100386.16
2022-12-08T10:37:10.550Z,100388.88
2022-12-08T10:38:22.126Z,100377.63
2022-12-08T10:39:35.585Z,100382.88
2022-12-08T10:40:45.284Z,100385.38
2022-12-08T10:41:48.204Z,100373.06
2022-12-08T10:42:53.382Z,100373.00
2022-12-08T10:44:00.456Z,100373.81
2022-12-08T10:45:15.859Z,100378.84
2022-12-08T10:46:21.766Z,100377.00
2022-12-08T10:47:27.692Z,100371.59
2022-12-08T10:48:31.615Z,100374.16
2022-12-08T10:49:35.350Z,100375.84
2022-12-08T10:50:44.045Z,100375.84
2022-12-08T10:51:45.729Z,100375.84
2022-12-08T10:52:55.824Z,100374.88
2022-12-08T10:53:58.412Z,100373.00
2022-12-08T10:55:01.466Z,100364.13
2022-12-08T10:56:15.421Z,100368.38
2022-12-08T10:57:22.213Z,100378.69
2022-12-08T10:58:30.818Z,100369.00
2022-12-08T10:59:34.803Z,100374.16
2022-12-08T11:00:39.159Z,100368.78
2022-12-08T11:01:43.764Z,100369.53
2022-12-08T11:02:59.288Z,100369.22
2022-12-08T11:04:04.996Z,100369.81
2022-12-08T11:05:08.116Z,100362.69
2022-12-08T11:06:16.228Z,100362.47
2022-12-08T11:07:23.679Z,100361.41
2022-12-08T11:08:26.629Z,100358.69
2022-12-08T11:09:40.694Z,100361.31
2022-12-08T11:10:46.230Z,100354.34
2022-12-08T11:11:51.162Z,100360.34
2022-12-08T11:12:53.740Z,100354.84
2022-12-08T11:13:56.647Z,100356.56
2022-12-08T11:15:03.599Z,100353.81
2022-12-08T11:16:07.445Z,100351.91
2022-12-08T11:17:13.800Z,100353.59
2022-12-08T11:18:26.897Z,100349.19
2022-12-08T11:19:29.457Z,100354.25
2022-12-08T11:20:40.554Z,100345.28
2022-12-08T11:21:43.634Z,100346.84
2022-12-08T11:22:50.761Z,100338.00
2022-12-08T11:23:53.265Z,100344.13
2022-12-08T11:25:00.556Z,100346.63
2022-12-08T11:26:13.811Z,100347.47
2022-12-08T11:27:15.322Z,100345.78
2022-12-08T11:28:23.074Z,100336.94
2022-12-08T11:29:25.796Z,100336.84
2022-12-08T11:30:31.441Z,100327.88
2022-12-08T11:31:39.237Z,100328.72
2022-12-08T11:32:44.734Z,100333.22
2022-12-08T11:33:49.572Z,100333.97
2022-12-08T11:34:55.988Z,100329.56
2022-12-08T11:36:03.144Z,100329.44
2022-12-08T11:37:11.271Z,100337.34
2022-12-08T11:38:21.742Z,100320.59
2022-12-08T11:39:27.788Z,100326.69
2022-12-08T11:40:35.364Z,100323.22
2022-12-08T11:41:42.840Z,100320.47
2022-12-08T11:42:54.724Z,100326.56
2022-12-08T11:44:05.466Z,100331.63
2022-12-08T11:45:14.721Z,100329.97
2022-12-08T11:46:21.893Z,100329.97
2022-12-08T11:47:28.535Z,100329.97
2022-12-08T11:48:35.049Z,100329.97
2022-12-08T11:49:40.214Z,100326.34
2022-12-08T11:50:47.137Z,100328.06
2022-12-08T11:51:58.285Z,100328.91
2022-12-08T11:53:01.589Z,100322.78
2022-12-08T11:54:19.982Z,100324.47
2022-12-08T11:55:37.180Z,100323.50
2022-12-08T11:56:46.894Z,100322.56
2022-12-08T11:57:50.198Z,100322.56
2022-12-08T11:58:57.178Z,100318.00
2022-12-08T12:00:01.842Z,100315.38
2022-12-08T12:01:17.895Z,100320.63
2022-12-08T12:02:23.088Z,100314.66
2022-12-08T12:03:32.176Z,100324.25
2022-12-08T12:04:41.315Z,100319.91
2022-12-08T12:07:37.038Z,100312.56
2022-12-08T12:08:50.279Z,100314.56
2022-12-08T12:10:08.224Z,100311.19
2022-12-08T12:11:37.912Z,100321.97
2022-12-08T12:12:59.112Z,100317.75
2022-12-08T12:14:16.350Z,100303.81
2022-12-08T12:15:39.577Z,100318.59
2022-12-08T12:16:57.610Z,100309.72
2022-12-08T12:18:05.195Z,100304.38
2022-12-08T12:19:15.718Z,100303.28
2022-12-08T12:20:25.099Z,100304.03
2022-12-08T12:21:33.879Z,100302.13
2022-12-08T12:22:38.415Z,100305.50
2022-12-08T12:23:45.868Z,100303.59
2022-12-08T12:24:51.067Z,100313.94
2022-12-08T12:25:59.056Z,100303.16
2022-12-08T12:27:04.611Z,100301.25
2022-12-08T12:28:08.949Z,100301.25
2022-12-08T12:29:18.264Z,100301.03
2022-12-08T12:30:23.410Z,100300.09
2022-12-08T12:31:29.105Z,100304.41
2022-12-08T12:32:43.632Z,100301.78
2022-12-08T12:33:47.769Z,100302.72
2022-12-08T12:34:53.244Z,100304.41
2022-12-08T12:35:58.030Z,100302.72